Time;durP1;ratioP1;P1;durP2;ratioP2;P2;SDS_P1;SDS_P2;PMS_P1;PMS_P2;Temp;Humidity;BMP_temperature;BMP_pressure;BME280_temperature;BME280_humidity;BME280_pressure;Samples;Min_cycle;Max_cycle;Signal;HPM_P1;HPM_P2
2023/05/18 00:02:02;;;;;;;14.90;2.75;;;8.30;93.80;;;;;;4956715;28;20046;-71
2023/05/18 00:04:30;;;;;;;16.95;3.40;;;8.40;93.90;;;;;;4971819;28;20667;-72
2023/05/18 00:06:55;;;;;;;11.68;3.17;;;8.30;93.90;;;;;;4951556;28;20051;-72
2023/05/18 00:09:25;;;;;;;10.13;2.95;;;8.30;94.10;;;;;;4975817;28;20062;-72
2023/05/18 00:11:54;;;;;;;16.38;3.67;;;8.30;94.20;;;;;;4976713;28;20493;-72
2023/05/18 00:14:20;;;;;;;12.43;3.72;;;8.30;94.40;;;;;;5003296;28;20199;-72
2023/05/18 00:16:46;;;;;;;13.00;3.55;;;8.20;94.40;;;;;;4974435;28;20601;-71
2023/05/18 00:19:13;;;;;;;9.40;2.95;;;8.20;94.40;;;;;;4984079;28;20053;-71
2023/05/18 00:21:45;;;;;;;9.07;2.60;;;8.20;94.50;;;;;;4969755;28;20057;-72
2023/05/18 00:24:11;;;;;;;11.40;3.00;;;8.20;94.50;;;;;;4959773;28;20045;-72
2023/05/18 00:26:40;;;;;;;9.40;3.15;;;8.20;94.60;;;;;;4957570;28;20057;-72
2023/05/18 00:29:06;;;;;;;10.63;3.55;;;8.20;94.80;;;;;;4939123;28;20084;-72
2023/05/18 00:31:35;;;;;;;8.85;3.50;;;8.10;94.70;;;;;;4960531;28;20078;-71
2023/05/18 00:34:02;;;;;;;10.98;3.70;;;8.10;94.90;;;;;;4977187;28;20465;-72
2023/05/18 00:36:28;;;;;;;12.40;3.60;;;8.10;95.10;;;;;;4973362;28;20152;-71
2023/05/18 00:38:54;;;;;;;9.73;3.00;;;8.00;95.20;;;;;;4956420;28;20121;-72
2023/05/18 00:41:21;;;;;;;11.90;3.28;;;8.00;95.20;;;;;;4992543;28;20046;-72
2023/05/18 00:43:47;;;;;;;11.55;3.65;;;7.90;95.50;;;;;;4991649;28;20071;-72
2023/05/18 00:46:12;;;;;;;9.38;3.42;;;8.00;95.60;;;;;;4967010;28;20053;-72
2023/05/18 00:48:38;;;;;;;15.23;3.75;;;8.00;95.70;;;;;;4954142;28;20133;-72
2023/05/18 00:51:04;;;;;;;12.15;3.50;;;7.90;95.80;;;;;;4980043;28;20050;-72
2023/05/18 00:53:31;;;;;;;10.68;4.05;;;7.90;96.00;;;;;;4969948;28;20517;-72
2023/05/18 00:55:57;;;;;;;12.15;3.25;;;7.90;96.10;;;;;;4949435;28;20038;-72
2023/05/18 00:58:23;;;;;;;8.82;3.83;;;7.90;96.20;;;;;;4959573;28;20336;-72
2023/05/18 01:00:48;;;;;;;12.27;3.47;;;7.80;96.30;;;;;;4971557;28;20371;-72
2023/05/18 01:03:18;;;;;;;13.50;3.50;;;7.80;96.40;;;;;;4949601;28;20046;-72
2023/05/18 01:05:44;;;;;;;12.70;4.07;;;7.80;96.30;;;;;;4975767;28;20057;-72
2023/05/18 01:08:10;;;;;;;11.55;3.40;;;7.70;96.20;;;;;;4955964;28;20058;-72
2023/05/18 01:10:36;;;;;;;10.80;3.65;;;7.70;96.40;;;;;;4958229;28;20080;-72
2023/05/18 01:13:05;;;;;;;10.55;2.88;;;7.60;96.40;;;;;;4967335;28;20050;-71
2023/05/18 01:15:35;;;;;;;14.02;4.28;;;7.60;96.50;;;;;;4958337;28;20328;-71
2023/05/18 01:18:05;;;;;;;6.93;3.22;;;7.60;96.80;;;;;;4974587;28;20042;-71
2023/05/18 01:20:56;;;;;;;12.63;3.45;;;7.60;96.90;;;;;;4981650;28;20046;-71
2023/05/18 01:23:43;;;;;;;11.27;3.22;;;7.50;97.00;;;;;;4974447;28;20042;-71
2023/05/18 01:26:28;;;;;;;10.50;2.92;;;7.50;97.10;;;;;;4980300;28;20046;-72
2023/05/18 01:28:55;;;;;;;9.70;3.42;;;7.50;97.10;;;;;;4964177;28;20055;-72
2023/05/18 01:31:22;;;;;;;11.80;3.72;;;7.50;97.10;;;;;;4953495;28;20081;-72
2023/05/18 01:33:47;;;;;;;9.80;3.63;;;7.50;97.20;;;;;;4957156;28;20070;-71
2023/05/18 01:36:13;;;;;;;10.13;3.55;;;7.40;97.10;;;;;;4987706;28;20112;-71
2023/05/18 01:38:39;;;;;;;12.13;3.80;;;7.40;97.30;;;;;;5005844;28;20050;-71
2023/05/18 01:41:07;;;;;;;8.85;3.58;;;7.40;97.30;;;;;;4981317;28;20478;-71
2023/05/18 01:43:35;;;;;;;12.57;4.00;;;7.40;97.40;;;;;;5010628;28;20134;-71
2023/05/18 01:46:06;;;;;;;9.50;3.13;;;7.30;97.20;;;;;;4973902;28;20053;-71
2023/05/18 01:48:32;;;;;;;9.73;3.90;;;7.30;97.20;;;;;;4968828;28;20142;-72
2023/05/18 01:51:00;;;;;;;7.10;3.65;;;7.20;97.30;;;;;;4971606;28;20139;-71
2023/05/18 01:53:34;;;;;;;13.38;4.03;;;7.20;97.40;;;;;;4952433;28;20054;-72
2023/05/18 01:56:01;;;;;;;10.70;3.92;;;7.20;97.60;;;;;;4985858;28;20050;-72
2023/05/18 01:58:28;;;;;;;11.75;3.90;;;7.10;97.90;;;;;;4970244;28;20070;-72
2023/05/18 02:00:55;;;;;;;9.75;4.20;;;7.10;98.20;;;;;;4970129;28;20054;-72
2023/05/18 02:03:24;;;;;;;10.35;4.80;;;7.00;98.40;;;;;;4973364;28;20038;-72
2023/05/18 02:05:49;;;;;;;11.25;5.47;;;7.00;98.60;;;;;;4971114;28;20050;-72
2023/05/18 02:08:16;;;;;;;12.63;4.88;;;7.00;98.90;;;;;;4954322;28;20340;-72
2023/05/18 02:10:42;;;;;;;9.93;4.53;;;7.00;99.10;;;;;;4971750;28;20451;-71
2023/05/18 02:13:07;;;;;;;14.27;4.00;;;7.00;99.30;;;;;;4948072;28;20213;-71
2023/05/18 02:15:33;;;;;;;11.70;4.53;;;7.10;99.60;;;;;;4986804;28;20050;-72
2023/05/18 02:18:00;;;;;;;10.82;4.18;;;7.10;99.90;;;;;;4976481;28;20069;-71
2023/05/18 02:20:31;;;;;;;12.52;4.05;;;7.10;99.80;;;;;;4979874;28;20042;-71
2023/05/18 02:22:57;;;;;;;12.85;4.85;;;7.00;99.80;;;;;;4986032;28;20049;-71
2023/05/18 02:25:22;;;;;;;11.60;3.63;;;7.00;99.90;;;;;;4952171;28;20039;-71
2023/05/18 02:27:49;;;;;;;9.70;3.63;;;7.00;99.90;;;;;;4985606;28;20034;-72
2023/05/18 02:30:17;;;;;;;9.80;3.40;;;7.00;99.90;;;;;;4984164;28;20049;-72
2023/05/18 02:32:45;;;;;;;8.70;3.45;;;6.90;99.90;;;;;;4969913;28;20174;-71
2023/05/18 02:35:11;;;;;;;10.20;3.13;;;6.90;99.90;;;;;;4977216;28;20104;-71
2023/05/18 02:37:42;;;;;;;15.02;3.63;;;6.80;99.90;;;;;;4967764;28;20121;-71
2023/05/18 02:40:12;;;;;;;8.93;3.28;;;6.80;99.90;;;;;;4959623;28;20830;-71
2023/05/18 02:42:38;;;;;;;8.48;2.92;;;6.80;99.90;;;;;;4970603;28;20061;-72
2023/05/18 02:45:04;;;;;;;7.63;3.20;;;6.80;99.90;;;;;;4970049;28;20046;-71
2023/05/18 02:47:30;;;;;;;6.07;2.67;;;6.70;99.90;;;;;;4971904;28;20046;-71
2023/05/18 02:49:55;;;;;;;8.38;3.15;;;6.70;99.90;;;;;;4996298;28;20185;-71
2023/05/18 02:52:21;;;;;;;10.23;3.13;;;6.70;99.90;;;;;;4990345;28;20062;-71
2023/05/18 02:54:47;;;;;;;12.00;3.53;;;6.60;99.90;;;;;;4959496;28;20498;-71
2023/05/18 02:57:13;;;;;;;11.00;3.63;;;6.60;99.90;;;;;;4978294;28;20070;-71
2023/05/18 02:59:39;;;;;;;11.07;3.78;;;6.60;99.90;;;;;;4990484;28;20043;-72
2023/05/18 03:02:05;;;;;;;12.77;2.97;;;6.60;99.90;;;;;;4957026;28;20049;-71
2023/05/18 03:04:32;;;;;;;7.22;3.10;;;6.60;99.90;;;;;;4963232;28;20093;-71
2023/05/18 03:07:01;;;;;;;15.13;3.28;;;6.60;99.90;;;;;;4955111;28;20125;-71
2023/05/18 03:09:28;;;;;;;8.13;3.40;;;6.60;99.90;;;;;;4973389;28;20104;-71
2023/05/18 03:11:56;;;;;;;10.27;3.05;;;6.60;99.90;;;;;;4964015;28;20046;-70
2023/05/18 03:14:24;;;;;;;8.93;3.15;;;6.60;99.90;;;;;;4985116;28;20086;-70
2023/05/18 03:16:53;;;;;;;11.75;4.00;;;6.50;99.90;;;;;;4966950;28;20073;-70
2023/05/18 03:19:21;;;;;;;8.68;3.33;;;6.50;99.90;;;;;;4984551;28;20579;-71
2023/05/18 03:21:48;;;;;;;8.27;2.90;;;6.60;99.90;;;;;;4984256;28;20042;-71
2023/05/18 03:24:15;;;;;;;9.30;3.65;;;6.50;99.90;;;;;;4989103;28;20153;-71
2023/05/18 03:26:43;;;;;;;8.40;2.92;;;6.50;99.90;;;;;;4968258;28;20062;-71
2023/05/18 03:29:10;;;;;;;14.10;3.97;;;6.50;99.90;;;;;;5002547;28;20043;-71
2023/05/18 03:31:37;;;;;;;9.88;3.47;;;6.40;99.90;;;;;;4958762;28;20061;-71
2023/05/18 03:34:02;;;;;;;7.40;3.15;;;6.40;99.90;;;;;;4974729;28;20065;-72
2023/05/18 03:36:28;;;;;;;8.13;3.25;;;6.40;99.90;;;;;;4953728;28;20050;-71
2023/05/18 03:38:54;;;;;;;10.85;3.30;;;6.40;99.90;;;;;;4956232;28;20057;-71
2023/05/18 03:41:20;;;;;;;6.78;2.92;;;6.40;99.90;;;;;;4990200;28;20072;-71
2023/05/18 03:43:46;;;;;;;10.32;3.25;;;6.40;99.90;;;;;;4937214;28;20100;-71
2023/05/18 03:46:12;;;;;;;10.00;3.05;;;6.40;99.90;;;;;;4962491;28;20431;-72
2023/05/18 03:48:38;;;;;;;9.25;3.40;;;6.40;99.90;;;;;;4958756;28;20081;-71
2023/05/18 03:51:05;;;;;;;10.45;3.60;;;6.40;99.90;;;;;;4990935;28;20054;-71
2023/05/18 03:53:32;;;;;;;10.23;3.35;;;6.30;99.90;;;;;;4981040;28;20694;-71
2023/05/18 03:55:58;;;;;;;9.65;3.45;;;6.30;99.90;;;;;;4948264;28;20125;-72
2023/05/18 03:58:26;;;;;;;7.60;3.30;;;6.40;99.90;;;;;;4973642;28;20125;-72
2023/05/18 04:00:52;;;;;;;10.60;3.42;;;6.30;99.90;;;;;;4969549;28;20053;-71
2023/05/18 04:03:17;;;;;;;10.25;3.42;;;6.30;99.90;;;;;;4986302;28;20054;-72
2023/05/18 04:05:43;;;;;;;7.43;2.90;;;6.30;99.90;;;;;;4968857;28;20058;-71
2023/05/18 04:08:13;;;;;;;14.60;3.53;;;6.30;99.90;;;;;;4962261;28;20038;-71
2023/05/18 04:10:43;;;;;;;9.82;3.63;;;6.40;99.90;;;;;;4972517;28;20046;-72
2023/05/18 04:13:08;;;;;;;7.75;3.67;;;6.30;99.90;;;;;;4970092;28;20136;-71
2023/05/18 04:15:35;;;;;;;10.63;3.53;;;6.30;99.90;;;;;;4980732;28;20157;-72
2023/05/18 04:18:01;;;;;;;7.57;3.35;;;6.30;99.90;;;;;;4967383;28;20053;-71
2023/05/18 04:20:28;;;;;;;6.47;3.05;;;6.20;99.90;;;;;;4948709;28;20528;-72
2023/05/18 04:22:54;;;;;;;6.93;3.63;;;6.20;99.90;;;;;;4984384;28;20129;-71
2023/05/18 04:25:20;;;;;;;6.68;3.03;;;6.20;99.90;;;;;;4989561;28;20369;-72
2023/05/18 04:27:45;;;;;;;10.93;3.70;;;6.20;99.90;;;;;;4944878;28;20116;-71
2023/05/18 04:30:13;;;;;;;5.20;3.22;;;6.20;99.90;;;;;;4977972;28;20046;-72
2023/05/18 04:32:41;;;;;;;8.35;3.30;;;6.20;99.90;;;;;;4988734;28;20601;-71
2023/05/18 04:35:09;;;;;;;;;;;6.10;99.90;;;;;;4983278;28;20046;-72
2023/05/18 04:37:39;;;;;;;7.68;2.90;;;6.10;99.90;;;;;;4989815;28;19944;-72
2023/05/18 04:40:06;;;;;;;7.53;3.17;;;6.10;99.90;;;;;;4966307;28;20046;-71
2023/05/18 04:42:35;;;;;;;6.30;3.30;;;6.10;99.90;;;;;;4972751;28;20133;-72
2023/05/18 04:45:05;;;;;;;11.07;3.47;;;6.10;99.90;;;;;;4954043;28;20084;-71
2023/05/18 04:47:31;;;;;;;9.18;3.35;;;6.10;99.90;;;;;;4991934;28;20141;-71
2023/05/18 04:49:58;;;;;;;8.65;3.60;;;6.10;99.90;;;;;;4985552;28;20450;-72
2023/05/18 04:52:24;;;;;;;5.72;2.88;;;6.00;99.90;;;;;;4982799;28;20706;-71
2023/05/18 04:54:50;;;;;;;5.93;2.85;;;6.10;99.90;;;;;;4978694;28;20558;-71
2023/05/18 04:57:16;;;;;;;10.38;3.35;;;6.10;99.90;;;;;;4954205;28;20108;-71
2023/05/18 04:59:46;;;;;;;7.05;3.42;;;6.10;99.90;;;;;;4991142;28;20054;-72
2023/05/18 05:02:12;;;;;;;7.68;3.50;;;6.20;99.90;;;;;;4977479;28;20526;-72
2023/05/18 05:04:38;;;;;;;11.93;3.33;;;6.20;99.90;;;;;;4941840;28;20581;-71
2023/05/18 05:07:03;;;;;;;8.57;3.20;;;6.20;99.90;;;;;;4982165;28;20046;-72
2023/05/18 05:09:29;;;;;;;8.05;3.38;;;6.20;99.90;;;;;;4960738;28;20042;-72
2023/05/18 05:11:55;;;;;;;11.52;3.33;;;6.30;99.90;;;;;;4975965;28;20069;-71
2023/05/18 05:14:21;;;;;;;5.97;3.20;;;6.30;99.90;;;;;;4974937;28;20141;-71
2023/05/18 05:16:46;;;;;;;10.18;4.05;;;6.30;99.90;;;;;;4987260;28;20050;-71
2023/05/18 05:19:12;;;;;;;8.57;4.20;;;6.40;99.90;;;;;;4952491;28;20074;-72
2023/05/18 05:21:39;;;;;;;11.80;3.83;;;6.40;99.90;;;;;;4940960;28;20463;-71
2023/05/18 05:24:06;;;;;;;11.35;4.35;;;6.50;99.90;;;;;;4980186;28;20104;-72
2023/05/18 05:26:32;;;;;;;13.73;4.25;;;6.50;99.90;;;;;;4972709;28;20425;-72
2023/05/18 05:28:58;;;;;;;10.55;4.45;;;6.50;99.90;;;;;;4981397;28;20152;-72
2023/05/18 05:31:24;;;;;;;12.93;4.40;;;6.60;99.90;;;;;;4988854;28;20125;-71
2023/05/18 05:33:51;;;;;;;14.20;4.50;;;6.70;99.90;;;;;;4986180;28;20140;-71
2023/05/18 05:36:18;;;;;;;11.20;4.47;;;6.70;99.90;;;;;;4981775;28;20038;-71
2023/05/18 05:38:44;;;;;;;13.77;4.57;;;6.80;99.90;;;;;;4986383;28;20034;-71
2023/05/18 05:41:10;;;;;;;11.65;3.97;;;6.90;99.90;;;;;;4990207;28;20490;-71
2023/05/18 05:43:35;;;;;;;12.07;3.83;;;6.90;99.90;;;;;;4990916;28;20046;-71
2023/05/18 05:46:02;;;;;;;8.55;3.30;;;7.00;99.90;;;;;;4980380;28;20060;-72
2023/05/18 05:48:28;;;;;;;11.80;3.65;;;7.00;99.90;;;;;;4982638;28;20352;-71
2023/05/18 05:50:54;;;;;;;11.88;3.90;;;7.10;99.90;;;;;;4997432;28;20053;-71
2023/05/18 05:53:22;;;;;;;10.73;3.97;;;7.20;99.90;;;;;;4988175;28;20050;-71
2023/05/18 05:55:47;;;;;;;13.93;4.07;;;7.20;99.90;;;;;;4966050;28;20125;-71
2023/05/18 05:58:13;;;;;;;11.88;3.95;;;7.20;99.90;;;;;;4985440;28;20764;-71
2023/05/18 06:00:39;;;;;;;10.07;3.72;;;7.30;99.90;;;;;;4978593;28;20046;-71
2023/05/18 06:03:05;;;;;;;16.52;4.68;;;7.30;99.90;;;;;;4998321;28;20044;-74
2023/05/18 06:05:30;;;;;;;12.98;3.58;;;7.30;99.90;;;;;;4966286;28;20130;-74
2023/05/18 06:07:56;;;;;;;9.60;3.88;;;7.40;99.90;;;;;;4991000;28;20037;-74
2023/05/18 06:10:22;;;;;;;9.13;3.47;;;7.50;99.90;;;;;;4978254;28;20104;-73
2023/05/18 06:12:48;;;;;;;10.75;3.38;;;7.50;99.90;;;;;;4991830;28;20432;-72
2023/05/18 06:15:14;;;;;;;10.27;3.40;;;7.60;99.90;;;;;;4990933;28;20057;-73
2023/05/18 06:17:40;;;;;;;13.25;3.35;;;7.60;99.90;;;;;;4950553;28;20049;-73
2023/05/18 06:20:06;;;;;;;8.40;3.55;;;7.70;99.90;;;;;;4961371;28;20038;-73
2023/05/18 06:22:32;;;;;;;12.25;3.70;;;7.70;99.90;;;;;;4960329;28;20044;-73
2023/05/18 06:24:58;;;;;;;8.07;3.00;;;7.80;99.90;;;;;;4974872;28;20050;-73
2023/05/18 06:27:23;;;;;;;10.63;3.25;;;7.80;99.90;;;;;;4985058;28;20104;-72
2023/05/18 06:29:52;;;;;;;10.77;3.63;;;7.90;99.90;;;;;;4996775;28;20049;-73
2023/05/18 06:32:18;;;;;;;12.15;3.42;;;8.00;99.90;;;;;;4948989;28;20120;-73
2023/05/18 06:34:49;;;;;;;13.75;3.13;;;8.00;99.90;;;;;;4953852;28;20054;-73
2023/05/18 06:37:16;;;;;;;11.68;3.13;;;8.10;99.90;;;;;;4964873;28;20534;-74
2023/05/18 06:39:44;;;;;;;10.55;3.05;;;8.20;99.90;;;;;;4990926;28;20056;-74
2023/05/18 06:42:10;;;;;;;10.63;2.58;;;8.20;99.90;;;;;;4984757;28;20056;-74
2023/05/18 06:44:35;;;;;;;10.85;3.00;;;8.30;99.90;;;;;;4975639;28;20125;-74
2023/05/18 06:47:01;;;;;;;13.00;2.90;;;8.40;99.90;;;;;;4960664;28;20050;-74
2023/05/18 06:49:27;;;;;;;12.43;2.90;;;8.40;99.90;;;;;;4969358;28;20074;-74
2023/05/18 06:51:52;;;;;;;13.15;3.03;;;8.50;99.90;;;;;;4988490;28;20056;-74
2023/05/18 06:54:18;;;;;;;11.55;2.53;;;8.60;99.90;;;;;;4966723;28;20074;-75
2023/05/18 06:56:45;;;;;;;11.20;2.63;;;8.60;99.90;;;;;;4924036;29;20046;-74
2023/05/18 06:59:10;;;;;;;14.07;3.20;;;8.70;99.90;;;;;;4937639;29;20043;-74
2023/05/18 07:01:36;;;;;;;10.43;2.60;;;8.70;99.90;;;;;;4963577;28;20050;-73
2023/05/18 07:04:02;;;;;;;6.93;2.05;;;8.80;99.90;;;;;;4957662;28;20121;-73
2023/05/18 07:06:28;;;;;;;9.40;2.15;;;8.90;99.90;;;;;;4975759;28;20054;-73
2023/05/18 07:08:55;;;;;;;8.45;2.70;;;9.00;99.90;;;;;;4975211;28;20134;-73
2023/05/18 07:11:21;;;;;;;11.23;2.67;;;9.00;99.90;;;;;;4959367;28;20043;-74
2023/05/18 07:13:47;;;;;;;8.60;2.40;;;9.10;99.90;;;;;;4935125;28;20097;-74
2023/05/18 07:16:13;;;;;;;7.43;2.60;;;9.20;99.50;;;;;;4966386;28;20055;-73
2023/05/18 07:18:40;;;;;;;10.93;2.60;;;9.20;99.40;;;;;;4936213;28;20054;-73
2023/05/18 07:21:06;;;;;;;13.80;2.88;;;9.30;99.40;;;;;;4940111;28;20039;-73
2023/05/18 07:23:32;;;;;;;8.68;2.60;;;9.30;99.30;;;;;;4970765;28;20053;-73
2023/05/18 07:25:58;;;;;;;8.13;2.03;;;9.50;99.30;;;;;;4926175;28;20051;-73
2023/05/18 07:28:23;;;;;;;12.38;2.55;;;9.40;99.20;;;;;;4964470;28;20050;-72
2023/05/18 07:30:49;;;;;;;9.82;2.40;;;9.50;99.00;;;;;;4960705;28;20089;-73
2023/05/18 07:33:15;;;;;;;12.73;1.92;;;9.60;98.90;;;;;;4975828;28;20049;-72
2023/05/18 07:35:41;;;;;;;12.32;2.90;;;9.60;98.60;;;;;;4976504;28;20492;-72
2023/05/18 07:38:06;;;;;;;10.15;2.20;;;9.70;98.30;;;;;;4962217;28;20590;-72
2023/05/18 07:40:32;;;;;;;10.63;3.05;;;9.70;97.90;;;;;;4961338;28;20137;-72
2023/05/18 07:42:58;;;;;;;12.40;2.63;;;9.70;97.60;;;;;;4941227;28;20082;-71
2023/05/18 07:45:24;;;;;;;9.40;2.28;;;9.80;97.90;;;;;;4978640;28;20415;-72
2023/05/18 07:47:57;;;;;;;9.10;2.08;;;9.90;97.90;;;;;;4974082;28;20053;-72
2023/05/18 07:50:25;;;;;;;5.82;1.88;;;9.90;97.80;;;;;;4964050;28;20397;-72
2023/05/18 07:52:51;;;;;;;12.18;2.70;;;10.00;97.60;;;;;;4963793;28;20459;-72
2023/05/18 07:55:18;;;;;;;8.70;2.08;;;10.10;97.50;;;;;;4965421;28;20058;-72
2023/05/18 07:57:44;;;;;;;12.20;2.10;;;10.10;97.30;;;;;;4935862;28;20116;-72
2023/05/18 08:00:10;;;;;;;8.98;1.80;;;10.10;96.90;;;;;;4966480;28;20038;-72
2023/05/18 08:02:37;;;;;;;8.70;2.00;;;10.20;96.90;;;;;;4970100;28;20050;-72
2023/05/18 08:05:04;;;;;;;10.32;1.98;;;10.30;96.90;;;;;;4965425;28;20043;-71
2023/05/18 08:07:31;;;;;;;8.07;2.20;;;10.30;96.70;;;;;;4956830;28;20384;-71
2023/05/18 08:09:57;;;;;;;9.60;1.90;;;10.40;96.50;;;;;;4964974;28;20050;-71
2023/05/18 08:12:24;;;;;;;8.15;2.55;;;10.50;96.10;;;;;;4955574;28;20053;-75
2023/05/18 08:14:50;;;;;;;13.77;2.72;;;10.60;96.80;;;;;;4944566;28;20051;-75
2023/05/18 08:17:17;;;;;;;9.95;2.17;;;10.70;97.50;;;;;;4954129;28;20039;-75
2023/05/18 08:19:43;;;;;;;6.32;1.88;;;10.80;97.70;;;;;;4976877;28;20773;-75
2023/05/18 08:22:08;;;;;;;10.70;2.05;;;10.90;98.10;;;;;;4970752;28;20051;-74
2023/05/18 08:24:34;;;;;;;6.90;2.03;;;11.10;97.60;;;;;;4946249;28;20046;-75
2023/05/18 08:27:02;;;;;;;12.77;3.17;;;11.20;96.70;;;;;;4941318;28;20060;-76
2023/05/18 08:29:29;;;;;;;11.43;2.17;;;11.30;96.80;;;;;;4968719;28;20480;-75
2023/05/18 08:31:55;;;;;;;9.57;2.15;;;11.30;96.10;;;;;;4936467;28;20416;-77
2023/05/18 08:34:21;;;;;;;13.38;3.17;;;11.40;95.80;;;;;;4955385;28;20109;-76
2023/05/18 08:36:47;;;;;;;8.73;2.55;;;11.40;95.50;;;;;;4958107;28;20054;-76
2023/05/18 08:39:13;;;;;;;9.32;2.13;;;11.50;95.80;;;;;;4954303;28;20046;-76
2023/05/18 08:41:52;;;;;;;8.80;1.83;;;11.50;95.30;;;;;;4939773;28;20050;-76
2023/05/18 08:44:24;;;;;;;12.95;1.95;;;11.70;95.70;;;;;;4964319;28;20126;-76
2023/05/18 08:46:50;;;;;;;8.07;1.85;;;11.80;95.20;;;;;;4934960;28;20042;-75
2023/05/18 08:49:20;;;;;;;9.20;1.70;;;11.80;94.50;;;;;;4963394;28;20527;-76
2023/05/18 08:51:56;;;;;;;9.55;1.83;;;11.90;95.00;;;;;;4964780;28;20134;-75
2023/05/18 08:54:24;;;;;;;11.57;2.28;;;11.90;95.30;;;;;;4948013;28;20395;-75
2023/05/18 08:56:51;;;;;;;9.75;2.20;;;12.00;95.20;;;;;;4969823;28;20493;-75
2023/05/18 08:59:25;;;;;;;12.55;2.28;;;12.20;95.00;;;;;;4954654;28;20061;-76
2023/05/18 09:01:53;;;;;;;9.60;2.35;;;12.20;94.80;;;;;;4974508;28;20046;-75
2023/05/18 09:04:20;;;;;;;11.05;2.17;;;12.30;95.00;;;;;;4964934;28;20130;-76
2023/05/18 09:06:47;;;;;;;9.30;2.20;;;12.30;94.10;;;;;;4954624;28;20050;-75
2023/05/18 09:09:15;;;;;;;8.90;1.70;;;12.30;93.60;;;;;;4955783;28;20047;-75
2023/05/18 09:11:40;;;;;;;15.90;2.63;;;12.30;93.80;;;;;;4954757;28;20038;-75
2023/05/18 09:14:06;;;;;;;11.40;2.20;;;12.30;92.60;;;;;;4963771;28;20058;-75
2023/05/18 09:16:32;;;;;;;12.52;2.17;;;12.30;93.20;;;;;;4961251;28;20046;-76
2023/05/18 09:18:58;;;;;;;9.95;1.73;;;12.30;93.30;;;;;;4980023;28;20125;-75
2023/05/18 09:21:25;;;;;;;8.95;1.80;;;12.30;93.50;;;;;;4948875;28;20770;-76
2023/05/18 09:23:51;;;;;;;16.00;2.75;;;12.40;93.70;;;;;;4987047;28;20180;-75
2023/05/18 09:26:18;;;;;;;13.52;2.65;;;12.50;94.10;;;;;;4967084;28;20129;-76
2023/05/18 09:28:44;;;;;;;7.47;1.85;;;12.50;94.00;;;;;;4945238;28;20070;-76
2023/05/18 09:31:19;;;;;;;8.50;2.50;;;12.60;94.20;;;;;;4955389;28;20379;-76
2023/05/18 09:33:45;;;;;;;7.57;2.15;;;12.80;94.40;;;;;;4985128;28;20050;-77
2023/05/18 09:36:11;;;;;;;8.23;2.10;;;12.90;94.10;;;;;;4969921;28;20058;-76
2023/05/18 09:38:38;;;;;;;10.38;2.20;;;13.00;93.40;;;;;;4953362;28;20054;-76
2023/05/18 09:41:08;;;;;;;9.88;2.00;;;13.00;93.20;;;;;;4990433;28;20490;-76
2023/05/18 09:43:34;;;;;;;8.27;2.42;;;13.10;92.80;;;;;;4985337;28;20329;-76
2023/05/18 09:46:07;;;;;;;7.70;1.92;;;13.10;92.30;;;;;;4986321;28;20484;-76
2023/05/18 09:48:40;;;;;;;8.82;1.65;;;13.20;92.80;;;;;;4942618;28;20046;-76
2023/05/18 09:51:06;;;;;;;8.93;1.70;;;13.20;92.50;;;;;;4963516;28;20451;-76
2023/05/18 09:53:34;;;;;;;10.02;2.38;;;13.30;92.80;;;;;;4979187;28;20060;-76
2023/05/18 09:56:05;;;;;;;7.75;2.50;;;13.30;92.80;;;;;;4980207;28;20038;-76
2023/05/18 09:58:32;;;;;;;14.07;2.70;;;13.30;91.90;;;;;;4964297;28;20046;-76
2023/05/18 10:01:00;;;;;;;10.88;2.25;;;13.30;92.60;;;;;;4958422;28;20074;-76
2023/05/18 10:03:26;;;;;;;9.55;2.22;;;13.40;92.50;;;;;;4960221;28;20102;-76
2023/05/18 10:05:52;;;;;;;10.10;2.13;;;13.40;93.30;;;;;;4975517;28;20042;-76
2023/05/18 10:08:20;;;;;;;8.70;2.10;;;13.40;92.60;;;;;;4960624;28;20205;-76
2023/05/18 10:10:48;;;;;;;7.18;1.83;;;13.50;92.30;;;;;;4980188;28;20042;-76
2023/05/18 10:13:19;;;;;;;8.52;2.10;;;13.60;91.10;;;;;;4976294;28;20076;-76
2023/05/18 10:15:47;;;;;;;8.65;2.63;;;13.70;91.70;;;;;;4959480;28;20106;-76
2023/05/18 10:18:13;;;;;;;11.77;2.28;;;13.80;92.60;;;;;;4980234;28;20510;-76
2023/05/18 10:20:40;;;;;;;7.20;2.25;;;13.90;91.10;;;;;;4973761;28;20046;-76
2023/05/18 10:23:05;;;;;;;8.38;2.10;;;13.90;90.50;;;;;;4980727;28;20056;-77
2023/05/18 10:25:31;;;;;;;8.48;1.90;;;13.90;90.70;;;;;;4953038;28;20043;-76
2023/05/18 10:28:03;;;;;;;7.70;1.88;;;14.00;90.30;;;;;;4968849;28;20058;-78
2023/05/18 10:30:34;;;;;;;10.45;2.28;;;14.20;91.50;;;;;;4969941;28;20039;-76
2023/05/18 10:33:00;;;;;;;9.65;1.98;;;14.30;91.40;;;;;;4974287;28;20108;-77
2023/05/18 10:35:27;;;;;;;7.57;1.90;;;14.50;90.30;;;;;;4979189;28;20054;-76
2023/05/18 10:37:52;;;;;;;7.57;1.88;;;14.40;88.30;;;;;;4956557;28;20462;-77
2023/05/18 10:40:18;;;;;;;8.35;2.00;;;14.40;87.30;;;;;;4964560;28;20057;-75
2023/05/18 10:42:44;;;;;;;6.63;1.90;;;14.40;88.40;;;;;;4945154;28;20085;-76
2023/05/18 10:45:11;;;;;;;11.63;1.90;;;14.60;90.10;;;;;;4955499;28;20050;-75
2023/05/18 10:47:41;;;;;;;7.78;1.80;;;14.70;87.70;;;;;;4989088;28;20043;-76
2023/05/18 10:50:10;;;;;;;12.63;2.22;;;14.70;88.90;;;;;;4958508;28;20049;-76
2023/05/18 10:52:37;;;;;;;12.57;2.22;;;14.80;89.70;;;;;;4984781;28;20491;-75
2023/05/18 10:55:04;;;;;;;8.80;2.25;;;15.00;89.10;;;;;;4970198;28;20089;-77
2023/05/18 10:57:40;;;;;;;6.70;1.92;;;15.10;88.70;;;;;;4956671;28;20106;-77
2023/05/18 11:00:09;;;;;;;5.97;2.33;;;15.10;89.30;;;;;;4986885;28;20081;-77
2023/05/18 11:02:35;;;;;;;;;;;15.20;89.70;;;;;;4961574;28;20100;-76
2023/05/18 11:05:05;;;;;;;6.25;2.10;;;15.20;86.40;;;;;;5000867;28;19914;-77
2023/05/18 11:07:32;;;;;;;7.50;1.92;;;15.40;88.20;;;;;;4993425;28;20051;-77
2023/05/18 11:10:01;;;;;;;11.68;2.38;;;15.50;86.20;;;;;;4979893;28;20418;-76
2023/05/18 11:12:27;;;;;;;12.25;2.00;;;15.50;86.40;;;;;;4957711;28;20078;-76
2023/05/18 11:14:53;;;;;;;7.38;2.10;;;15.50;85.90;;;;;;4971445;28;20082;-76
2023/05/18 11:17:31;;;;;;;8.77;2.28;;;15.50;85.80;;;;;;4972734;28;20046;-77
2023/05/18 11:20:11;;;;;;;9.10;2.28;;;15.20;83.00;;;;;;4976991;28;20754;-77
2023/05/18 11:22:59;;;;;;;10.63;2.23;;;15.30;85.10;;;;;;4988988;28;20038;-76
2023/05/18 11:25:25;;;;;;;7.27;1.83;;;15.50;85.30;;;;;;4979538;28;20066;-77
2023/05/18 11:27:56;;;;;;;9.50;1.90;;;15.60;84.60;;;;;;4982445;28;20376;-73
2023/05/18 11:30:57;;;;;;;7.57;1.70;;;15.70;84.90;;;;;;4976560;28;20046;-73
2023/05/18 11:33:27;;;;;;;7.93;1.83;;;15.80;87.60;;;;;;4952918;28;20043;-74
2023/05/18 11:36:11;;;;;;;7.80;1.88;;;15.90;85.40;;;;;;4966550;28;20039;-74
2023/05/18 11:39:10;;;;;;;6.13;2.08;;;16.00;86.10;;;;;;4940161;28;20042;-76
2023/05/18 11:41:43;;;;;;;7.70;2.03;;;16.00;82.70;;;;;;4924313;28;20050;-77
2023/05/18 11:44:16;;;;;;;9.75;2.00;;;16.10;81.60;;;;;;4945318;28;20058;-77
2023/05/18 11:47:08;;;;;;;9.50;2.45;;;16.20;81.50;;;;;;4945152;28;20082;-77
2023/05/18 11:49:48;;;;;;;9.00;2.40;;;16.20;80.60;;;;;;4929281;28;20073;-77
2023/05/18 11:52:21;;;;;;;6.78;1.70;;;16.30;82.60;;;;;;4913182;29;20051;-77
2023/05/18 11:55:05;;;;;;;8.25;1.92;;;16.30;76.70;;;;;;4973614;28;20058;-77
2023/05/18 11:57:44;;;;;;;6.25;1.73;;;16.20;77.80;;;;;;4979796;28;20042;-76
2023/05/18 12:00:14;;;;;;;7.15;2.38;;;16.20;78.10;;;;;;4979758;28;20050;-77
2023/05/18 12:02:47;;;;;;;9.57;2.58;;;16.10;79.90;;;;;;4951297;28;20038;-77
2023/05/18 12:05:14;;;;;;;6.70;1.75;;;16.20;79.60;;;;;;4970363;28;20681;-77
2023/05/18 12:07:41;;;;;;;8.60;2.00;;;16.20;79.90;;;;;;4954971;28;20050;-74
2023/05/18 12:10:13;;;;;;;7.80;1.90;;;16.30;83.00;;;;;;4954748;28;20058;-74
2023/05/18 12:12:39;;;;;;;8.20;1.80;;;16.50;82.80;;;;;;4983373;28;20116;-73
2023/05/18 12:15:09;;;;;;;5.22;1.70;;;16.50;81.60;;;;;;4995116;28;20043;-74
2023/05/18 12:17:39;;;;;;;10.43;2.47;;;16.60;81.20;;;;;;4971560;28;20043;-74
2023/05/18 12:20:05;;;;;;;5.28;1.70;;;16.70;78.30;;;;;;4961447;28;20089;-74
2023/05/18 12:22:31;;;;;;;7.00;1.73;;;16.60;79.00;;;;;;4964026;28;20125;-74
2023/05/18 12:24:56;;;;;;;8.32;2.17;;;16.50;79.80;;;;;;4966464;28;20149;-74
2023/05/18 12:27:25;;;;;;;9.43;2.05;;;16.70;82.60;;;;;;4967195;28;20082;-74
2023/05/18 12:29:51;;;;;;;6.78;1.80;;;16.80;78.30;;;;;;4984100;28;20120;-74
2023/05/18 12:32:16;;;;;;;9.75;1.60;;;17.00;79.40;;;;;;4954661;28;20054;-77
2023/05/18 12:34:43;;;;;;;8.77;2.47;;;17.00;76.90;;;;;;4982109;28;20050;-76
2023/05/18 12:37:09;;;;;;;10.07;2.05;;;17.10;78.90;;;;;;4976113;28;20069;-76
2023/05/18 12:39:36;;;;;;;6.95;2.30;;;17.00;78.60;;;;;;4944464;28;20046;-74
2023/05/18 12:42:09;;;;;;;6.03;1.77;;;17.10;79.30;;;;;;4959282;28;20054;-76
2023/05/18 12:44:35;;;;;;;4.93;1.50;;;16.90;75.50;;;;;;4954193;28;20057;-75
2023/05/18 12:47:01;;;;;;;8.70;2.05;;;17.00;76.70;;;;;;4969903;28;20052;-75
2023/05/18 12:49:27;;;;;;;7.90;1.60;;;17.10;77.80;;;;;;4969818;28;20456;-75
2023/05/18 12:51:56;;;;;;;9.75;2.22;;;17.10;75.80;;;;;;4968962;28;20046;-75